sensor_id;sensor_type;location;lat;lon;timestamp;temperature;humidity
19437;DHT22;9854;50.968;4.168;2023-08-06T00:00:21;16.90;99.90
19437;DHT22;9854;50.968;4.168;2023-08-06T00:02:47;16.90;99.90
19437;DHT22;9854;50.968;4.168;2023-08-06T00:05:12;16.90;99.90
19437;DHT22;9854;50.968;4.168;2023-08-06T00:07:38;16.80;99.90
19437;DHT22;9854;50.968;4.168;2023-08-06T00:10:04;16.70;99.90
19437;DHT22;9854;50.968;4.168;2023-08-06T00:12:30;16.70;99.90
19437;DHT22;9854;50.968;4.168;2023-08-06T00:14:55;16.80;99.90
19437;DHT22;9854;50.968;4.168;2023-08-06T00:17:21;16.70;99.90
19437;DHT22;9854;50.968;4.168;2023-08-06T00:19:47;16.60;99.90
19437;DHT22;9854;50.968;4.168;2023-08-06T00:22:12;16.50;99.90
19437;DHT22;9854;50.968;4.168;2023-08-06T00:24:38;16.50;99.90
19437;DHT22;9854;50.968;4.168;2023-08-06T00:27:04;16.40;99.90
19437;DHT22;9854;50.968;4.168;2023-08-06T00:29:29;16.50;99.90
19437;DHT22;9854;50.968;4.168;2023-08-06T00:31:55;16.40;99.90
19437;DHT22;9854;50.968;4.168;2023-08-06T00:34:20;16.50;99.90
19437;DHT22;9854;50.968;4.168;2023-08-06T00:36:46;16.40;99.90
19437;DHT22;9854;50.968;4.168;2023-08-06T00:39:12;16.40;99.90
19437;DHT22;9854;50.968;4.168;2023-08-06T00:41:37;16.30;99.90
19437;DHT22;9854;50.968;4.168;2023-08-06T00:44:03;16.40;99.90
19437;DHT22;9854;50.968;4.168;2023-08-06T00:46:29;16.40;99.90
19437;DHT22;9854;50.968;4.168;2023-08-06T00:48:55;16.50;99.90
19437;DHT22;9854;50.968;4.168;2023-08-06T00:51:22;16.50;99.90
19437;DHT22;9854;50.968;4.168;2023-08-06T00:53:49;16.30;99.90
19437;DHT22;9854;50.968;4.168;2023-08-06T00:56:15;16.20;99.90
19437;DHT22;9854;50.968;4.168;2023-08-06T00:58:41;16.20;99.90
19437;DHT22;9854;50.968;4.168;2023-08-06T01:01:07;16.20;99.90
19437;DHT22;9854;50.968;4.168;2023-08-06T01:03:33;16.30;99.90
19437;DHT22;9854;50.968;4.168;2023-08-06T01:05:59;16.40;99.90
19437;DHT22;9854;50.968;4.168;2023-08-06T01:08:48;16.40;99.90
19437;DHT22;9854;50.968;4.168;2023-08-06T01:11:44;16.30;99.90
19437;DHT22;9854;50.968;4.168;2023-08-06T01:14:21;16.20;99.90
19437;DHT22;9854;50.968;4.168;2023-08-06T01:16:51;16.20;99.90
19437;DHT22;9854;50.968;4.168;2023-08-06T01:19:18;16.20;99.90
19437;DHT22;9854;50.968;4.168;2023-08-06T01:21:44;16.30;99.90
19437;DHT22;9854;50.968;4.168;2023-08-06T01:24:10;16.40;99.90
19437;DHT22;9854;50.968;4.168;2023-08-06T01:26:42;16.40;99.90
19437;DHT22;9854;50.968;4.168;2023-08-06T01:31:43;16.50;99.90
19437;DHT22;9854;50.968;4.168;2023-08-06T01:34:20;16.50;99.90
19437;DHT22;9854;50.968;4.168;2023-08-06T01:36:46;16.50;99.90
19437;DHT22;9854;50.968;4.168;2023-08-06T01:39:12;16.50;99.90
19437;DHT22;9854;50.968;4.168;2023-08-06T01:41:38;16.50;99.90
19437;DHT22;9854;50.968;4.168;2023-08-06T01:44:04;16.50;99.90
19437;DHT22;9854;50.968;4.168;2023-08-06T01:46:30;16.60;99.90
19437;DHT22;9854;50.968;4.168;2023-08-06T01:48:56;16.60;99.90
19437;DHT22;9854;50.968;4.168;2023-08-06T01:51:21;16.60;99.90
19437;DHT22;9854;50.968;4.168;2023-08-06T01:53:47;16.60;99.90
19437;DHT22;9854;50.968;4.168;2023-08-06T01:56:13;16.50;99.90
19437;DHT22;9854;50.968;4.168;2023-08-06T01:58:38;16.50;99.90
19437;DHT22;9854;50.968;4.168;2023-08-06T02:01:04;16.30;99.90
19437;DHT22;9854;50.968;4.168;2023-08-06T02:03:29;16.30;99.90
19437;DHT22;9854;50.968;4.168;2023-08-06T02:05:55;16.30;99.90
19437;DHT22;9854;50.968;4.168;2023-08-06T02:08:21;16.30;99.90
19437;DHT22;9854;50.968;4.168;2023-08-06T02:10:46;16.30;99.90
19437;DHT22;9854;50.968;4.168;2023-08-06T02:13:12;16.30;99.90
19437;DHT22;9854;50.968;4.168;2023-08-06T02:15:44;16.30;99.90
19437;DHT22;9854;50.968;4.168;2023-08-06T02:18:10;16.40;99.90
19437;DHT22;9854;50.968;4.168;2023-08-06T02:20:36;16.40;99.90
19437;DHT22;9854;50.968;4.168;2023-08-06T02:23:01;16.30;99.90
19437;DHT22;9854;50.968;4.168;2023-08-06T02:25:27;16.20;99.90
19437;DHT22;9854;50.968;4.168;2023-08-06T02:27:53;16.20;99.90
19437;DHT22;9854;50.968;4.168;2023-08-06T02:30:18;16.20;99.90
19437;DHT22;9854;50.968;4.168;2023-08-06T02:32:44;16.20;99.90
19437;DHT22;9854;50.968;4.168;2023-08-06T02:35:09;16.00;99.90
19437;DHT22;9854;50.968;4.168;2023-08-06T02:37:35;15.90;99.90
19437;DHT22;9854;50.968;4.168;2023-08-06T02:40:01;15.90;99.90
19437;DHT22;9854;50.968;4.168;2023-08-06T02:42:27;15.90;99.90
19437;DHT22;9854;50.968;4.168;2023-08-06T02:44:53;15.80;99.90
19437;DHT22;9854;50.968;4.168;2023-08-06T02:47:22;15.80;99.90
19437;DHT22;9854;50.968;4.168;2023-08-06T02:49:47;15.80;99.90
19437;DHT22;9854;50.968;4.168;2023-08-06T02:52:13;15.80;99.90
19437;DHT22;9854;50.968;4.168;2023-08-06T02:54:39;15.90;99.90
19437;DHT22;9854;50.968;4.168;2023-08-06T02:57:05;15.80;99.90
19437;DHT22;9854;50.968;4.168;2023-08-06T02:59:31;15.80;99.90
19437;DHT22;9854;50.968;4.168;2023-08-06T03:01:57;15.70;99.90
19437;DHT22;9854;50.968;4.168;2023-08-06T03:04:23;15.60;99.90
19437;DHT22;9854;50.968;4.168;2023-08-06T03:06:51;15.60;99.90
19437;DHT22;9854;50.968;4.168;2023-08-06T03:09:17;15.60;99.90
19437;DHT22;9854;50.968;4.168;2023-08-06T03:11:43;15.50;99.90
19437;DHT22;9854;50.968;4.168;2023-08-06T03:14:09;15.50;99.90
19437;DHT22;9854;50.968;4.168;2023-08-06T03:16:35;15.40;99.90
19437;DHT22;9854;50.968;4.168;2023-08-06T03:19:00;15.30;99.90
19437;DHT22;9854;50.968;4.168;2023-08-06T03:21:26;15.30;99.90
19437;DHT22;9854;50.968;4.168;2023-08-06T03:23:52;15.30;99.90
19437;DHT22;9854;50.968;4.168;2023-08-06T03:26:18;15.30;99.90
19437;DHT22;9854;50.968;4.168;2023-08-06T03:28:43;15.30;99.90
19437;DHT22;9854;50.968;4.168;2023-08-06T03:31:09;15.20;99.90
19437;DHT22;9854;50.968;4.168;2023-08-06T03:33:35;15.10;99.90
19437;DHT22;9854;50.968;4.168;2023-08-06T03:36:00;15.00;99.90
19437;DHT22;9854;50.968;4.168;2023-08-06T03:38:26;15.00;99.90
19437;DHT22;9854;50.968;4.168;2023-08-06T03:40:53;15.00;99.90
19437;DHT22;9854;50.968;4.168;2023-08-06T03:43:18;15.00;99.90
19437;DHT22;9854;50.968;4.168;2023-08-06T03:45:44;15.10;99.90
19437;DHT22;9854;50.968;4.168;2023-08-06T03:48:09;14.90;99.90
19437;DHT22;9854;50.968;4.168;2023-08-06T03:50:35;14.90;99.90
19437;DHT22;9854;50.968;4.168;2023-08-06T03:53:01;14.80;99.90
19437;DHT22;9854;50.968;4.168;2023-08-06T03:55:27;14.90;99.90
19437;DHT22;9854;50.968;4.168;2023-08-06T03:57:53;14.90;99.90
19437;DHT22;9854;50.968;4.168;2023-08-06T04:00:18;14.80;99.90
19437;DHT22;9854;50.968;4.168;2023-08-06T04:02:44;14.80;99.90
19437;DHT22;9854;50.968;4.168;2023-08-06T04:05:10;14.90;99.90
19437;DHT22;9854;50.968;4.168;2023-08-06T04:07:35;14.90;99.90
19437;DHT22;9854;50.968;4.168;2023-08-06T04:10:04;14.80;99.90
19437;DHT22;9854;50.968;4.168;2023-08-06T04:12:30;14.80;99.90
19437;DHT22;9854;50.968;4.168;2023-08-06T04:14:59;14.80;99.90
19437;DHT22;9854;50.968;4.168;2023-08-06T04:17:25;14.70;99.90
19437;DHT22;9854;50.968;4.168;2023-08-06T04:19:52;14.60;99.90
19437;DHT22;9854;50.968;4.168;2023-08-06T04:22:19;14.50;99.90
19437;DHT22;9854;50.968;4.168;2023-08-06T04:24:45;14.50;99.90
19437;DHT22;9854;50.968;4.168;2023-08-06T04:27:12;14.60;99.90
19437;DHT22;9854;50.968;4.168;2023-08-06T04:29:38;14.60;99.90
19437;DHT22;9854;50.968;4.168;2023-08-06T04:32:08;14.60;99.90
19437;DHT22;9854;50.968;4.168;2023-08-06T04:34:36;14.60;99.90
19437;DHT22;9854;50.968;4.168;2023-08-06T04:37:02;14.50;99.90
19437;DHT22;9854;50.968;4.168;2023-08-06T04:39:28;14.50;99.90
19437;DHT22;9854;50.968;4.168;2023-08-06T04:41:55;14.60;99.90
19437;DHT22;9854;50.968;4.168;2023-08-06T04:44:21;14.60;99.90
19437;DHT22;9854;50.968;4.168;2023-08-06T04:46:47;14.70;99.90
19437;DHT22;9854;50.968;4.168;2023-08-06T04:49:13;14.70;99.90
19437;DHT22;9854;50.968;4.168;2023-08-06T04:51:38;14.80;99.90
19437;DHT22;9854;50.968;4.168;2023-08-06T04:54:04;14.80;99.90
19437;DHT22;9854;50.968;4.168;2023-08-06T04:56:30;14.80;99.90
19437;DHT22;9854;50.968;4.168;2023-08-06T04:58:56;14.70;99.90
19437;DHT22;9854;50.968;4.168;2023-08-06T05:01:22;14.70;99.90
19437;DHT22;9854;50.968;4.168;2023-08-06T05:03:48;14.80;99.90
19437;DHT22;9854;50.968;4.168;2023-08-06T05:06:14;14.80;99.90
19437;DHT22;9854;50.968;4.168;2023-08-06T05:08:39;14.80;99.90
19437;DHT22;9854;50.968;4.168;2023-08-06T05:11:05;14.60;99.90
19437;DHT22;9854;50.968;4.168;2023-08-06T05:13:30;14.60;99.90
19437;DHT22;9854;50.968;4.168;2023-08-06T05:15:56;14.60;99.90
19437;DHT22;9854;50.968;4.168;2023-08-06T05:18:22;14.50;99.90
19437;DHT22;9854;50.968;4.168;2023-08-06T05:20:48;14.60;99.90
19437;DHT22;9854;50.968;4.168;2023-08-06T05:23:13;14.60;99.90
19437;DHT22;9854;50.968;4.168;2023-08-06T05:25:39;14.60;99.90
19437;DHT22;9854;50.968;4.168;2023-08-06T05:28:05;14.50;99.90
19437;DHT22;9854;50.968;4.168;2023-08-06T05:30:31;14.50;99.90
19437;DHT22;9854;50.968;4.168;2023-08-06T05:32:57;14.50;99.90
19437;DHT22;9854;50.968;4.168;2023-08-06T05:35:23;14.40;99.90
19437;DHT22;9854;50.968;4.168;2023-08-06T05:37:50;14.40;99.90
19437;DHT22;9854;50.968;4.168;2023-08-06T05:40:16;14.30;99.90
19437;DHT22;9854;50.968;4.168;2023-08-06T05:42:41;14.30;99.90
19437;DHT22;9854;50.968;4.168;2023-08-06T05:45:07;14.20;99.90
19437;DHT22;9854;50.968;4.168;2023-08-06T05:47:33;14.20;99.90
19437;DHT22;9854;50.968;4.168;2023-08-06T05:49:59;14.20;99.90
19437;DHT22;9854;50.968;4.168;2023-08-06T05:52:24;14.20;99.90
19437;DHT22;9854;50.968;4.168;2023-08-06T05:54:50;14.20;99.90
19437;DHT22;9854;50.968;4.168;2023-08-06T05:57:16;14.20;99.90
19437;DHT22;9854;50.968;4.168;2023-08-06T05:59:42;14.20;99.90
19437;DHT22;9854;50.968;4.168;2023-08-06T06:02:08;14.20;99.90
19437;DHT22;9854;50.968;4.168;2023-08-06T06:04:34;14.20;99.90
19437;DHT22;9854;50.968;4.168;2023-08-06T06:06:59;14.30;99.90
19437;DHT22;9854;50.968;4.168;2023-08-06T06:09:25;14.30;99.90
19437;DHT22;9854;50.968;4.168;2023-08-06T06:11:50;14.30;99.90
19437;DHT22;9854;50.968;4.168;2023-08-06T06:14:17;14.30;99.90
19437;DHT22;9854;50.968;4.168;2023-08-06T06:16:43;14.30;99.90
19437;DHT22;9854;50.968;4.168;2023-08-06T06:19:08;14.40;99.90
19437;DHT22;9854;50.968;4.168;2023-08-06T06:21:34;14.30;99.90
19437;DHT22;9854;50.968;4.168;2023-08-06T06:24:00;14.30;99.90
19437;DHT22;9854;50.968;4.168;2023-08-06T06:26:25;14.30;99.90
19437;DHT22;9854;50.968;4.168;2023-08-06T06:28:51;14.30;99.90
19437;DHT22;9854;50.968;4.168;2023-08-06T06:31:17;14.30;99.90
19437;DHT22;9854;50.968;4.168;2023-08-06T06:33:42;14.30;99.90
19437;DHT22;9854;50.968;4.168;2023-08-06T06:36:08;14.30;99.90
19437;DHT22;9854;50.968;4.168;2023-08-06T06:38:34;14.30;99.90
19437;DHT22;9854;50.968;4.168;2023-08-06T06:41:00;14.30;99.90
19437;DHT22;9854;50.968;4.168;2023-08-06T06:43:26;14.30;99.90
19437;DHT22;9854;50.968;4.168;2023-08-06T06:46:00;14.20;99.90
19437;DHT22;9854;50.968;4.168;2023-08-06T06:48:31;14.30;99.90
19437;DHT22;9854;50.968;4.168;2023-08-06T06:50:57;14.20;99.90
19437;DHT22;9854;50.968;4.168;2023-08-06T06:53:23;14.30;99.90
19437;DHT22;9854;50.968;4.168;2023-08-06T06:55:56;14.20;99.90
19437;DHT22;9854;50.968;4.168;2023-08-06T06:58:22;14.20;99.90
19437;DHT22;9854;50.968;4.168;2023-08-06T07:00:48;14.30;99.90
19437;DHT22;9854;50.968;4.168;2023-08-06T07:03:16;14.30;99.90
19437;DHT22;9854;50.968;4.168;2023-08-06T07:05:44;14.30;99.90
19437;DHT22;9854;50.968;4.168;2023-08-06T07:08:09;14.30;99.90
19437;DHT22;9854;50.968;4.168;2023-08-06T07:10:35;14.40;99.90
19437;DHT22;9854;50.968;4.168;2023-08-06T07:13:01;14.30;99.90
19437;DHT22;9854;50.968;4.168;2023-08-06T07:15:26;14.40;99.90
19437;DHT22;9854;50.968;4.168;2023-08-06T07:17:52;14.40;99.90
19437;DHT22;9854;50.968;4.168;2023-08-06T07:20:18;14.40;99.90
19437;DHT22;9854;50.968;4.168;2023-08-06T07:22:44;14.40;99.90
19437;DHT22;9854;50.968;4.168;2023-08-06T07:25:10;14.40;99.90
19437;DHT22;9854;50.968;4.168;2023-08-06T07:27:35;14.40;99.90
19437;DHT22;9854;50.968;4.168;2023-08-06T07:30:01;14.50;99.90
19437;DHT22;9854;50.968;4.168;2023-08-06T07:32:27;14.50;99.90
19437;DHT22;9854;50.968;4.168;2023-08-06T07:34:53;14.50;99.90
19437;DHT22;9854;50.968;4.168;2023-08-06T07:37:22;14.60;99.90
19437;DHT22;9854;50.968;4.168;2023-08-06T07:39:48;14.70;99.90
19437;DHT22;9854;50.968;4.168;2023-08-06T07:42:14;14.80;99.90
19437;DHT22;9854;50.968;4.168;2023-08-06T07:44:39;14.80;99.90
19437;DHT22;9854;50.968;4.168;2023-08-06T07:47:05;14.90;99.90
19437;DHT22;9854;50.968;4.168;2023-08-06T07:49:31;15.00;99.90
19437;DHT22;9854;50.968;4.168;2023-08-06T07:51:56;15.10;99.90
19437;DHT22;9854;50.968;4.168;2023-08-06T07:54:22;15.10;99.90
19437;DHT22;9854;50.968;4.168;2023-08-06T07:56:49;15.10;99.90
19437;DHT22;9854;50.968;4.168;2023-08-06T07:59:15;15.10;99.90
19437;DHT22;9854;50.968;4.168;2023-08-06T08:01:40;15.10;99.90
19437;DHT22;9854;50.968;4.168;2023-08-06T08:04:06;15.00;99.90
19437;DHT22;9854;50.968;4.168;2023-08-06T08:06:33;14.80;99.90
19437;DHT22;9854;50.968;4.168;2023-08-06T08:08:58;14.70;99.90
19437;DHT22;9854;50.968;4.168;2023-08-06T08:11:25;14.50;99.90
19437;DHT22;9854;50.968;4.168;2023-08-06T08:13:51;14.40;99.90
19437;DHT22;9854;50.968;4.168;2023-08-06T08:16:17;14.40;99.90
19437;DHT22;9854;50.968;4.168;2023-08-06T08:18:42;14.30;99.90
19437;DHT22;9854;50.968;4.168;2023-08-06T08:21:08;14.20;99.90
19437;DHT22;9854;50.968;4.168;2023-08-06T08:23:34;14.20;99.90
19437;DHT22;9854;50.968;4.168;2023-08-06T08:25:59;14.30;99.90
19437;DHT22;9854;50.968;4.168;2023-08-06T08:28:27;14.30;99.90
19437;DHT22;9854;50.968;4.168;2023-08-06T08:30:53;14.30;99.90
19437;DHT22;9854;50.968;4.168;2023-08-06T08:33:18;14.30;99.90
19437;DHT22;9854;50.968;4.168;2023-08-06T08:35:46;14.30;99.90
19437;DHT22;9854;50.968;4.168;2023-08-06T08:38:11;14.50;99.90
19437;DHT22;9854;50.968;4.168;2023-08-06T08:40:51;14.50;99.90
19437;DHT22;9854;50.968;4.168;2023-08-06T08:43:22;14.60;99.90
19437;DHT22;9854;50.968;4.168;2023-08-06T08:45:50;14.80;99.90
19437;DHT22;9854;50.968;4.168;2023-08-06T08:48:18;14.80;99.90
19437;DHT22;9854;50.968;4.168;2023-08-06T08:50:45;14.80;99.90
19437;DHT22;9854;50.968;4.168;2023-08-06T08:53:14;14.80;99.90
19437;DHT22;9854;50.968;4.168;2023-08-06T08:55:41;14.70;99.90
19437;DHT22;9854;50.968;4.168;2023-08-06T08:58:08;14.60;99.90
19437;DHT22;9854;50.968;4.168;2023-08-06T09:00:34;14.60;99.90
19437;DHT22;9854;50.968;4.168;2023-08-06T09:03:00;14.70;99.90
19437;DHT22;9854;50.968;4.168;2023-08-06T09:05:28;14.70;99.90
19437;DHT22;9854;50.968;4.168;2023-08-06T09:08:02;14.50;99.90
19437;DHT22;9854;50.968;4.168;2023-08-06T09:10:29;14.40;99.90
19437;DHT22;9854;50.968;4.168;2023-08-06T09:12:55;14.30;99.90
19437;DHT22;9854;50.968;4.168;2023-08-06T09:15:25;14.20;99.90
19437;DHT22;9854;50.968;4.168;2023-08-06T09:17:52;14.10;99.90
19437;DHT22;9854;50.968;4.168;2023-08-06T09:20:17;14.10;99.90
19437;DHT22;9854;50.968;4.168;2023-08-06T09:22:43;14.20;99.90
19437;DHT22;9854;50.968;4.168;2023-08-06T09:25:10;14.20;99.90
19437;DHT22;9854;50.968;4.168;2023-08-06T09:27:40;14.20;99.90
19437;DHT22;9854;50.968;4.168;2023-08-06T09:30:08;14.20;99.90
19437;DHT22;9854;50.968;4.168;2023-08-06T09:32:47;14.30;99.90
19437;DHT22;9854;50.968;4.168;2023-08-06T09:35:17;14.20;99.90
19437;DHT22;9854;50.968;4.168;2023-08-06T09:37:44;14.20;99.90
19437;DHT22;9854;50.968;4.168;2023-08-06T09:40:30;14.20;99.90
19437;DHT22;9854;50.968;4.168;2023-08-06T09:42:57;14.20;99.90
19437;DHT22;9854;50.968;4.168;2023-08-06T09:45:23;14.20;99.90
19437;DHT22;9854;50.968;4.168;2023-08-06T09:47:56;14.20;99.90
19437;DHT22;9854;50.968;4.168;2023-08-06T09:50:22;14.30;99.90
19437;DHT22;9854;50.968;4.168;2023-08-06T09:52:48;14.30;99.90
19437;DHT22;9854;50.968;4.168;2023-08-06T09:55:16;14.30;99.90
19437;DHT22;9854;50.968;4.168;2023-08-06T09:57:42;14.30;99.90
19437;DHT22;9854;50.968;4.168;2023-08-06T10:00:09;14.30;99.90
19437;DHT22;9854;50.968;4.168;2023-08-06T10:02:39;14.30;99.90
19437;DHT22;9854;50.968;4.168;2023-08-06T10:05:06;14.30;99.90
19437;DHT22;9854;50.968;4.168;2023-08-06T10:07:33;14.30;99.90
19437;DHT22;9854;50.968;4.168;2023-08-06T10:09:59;14.30;99.90
19437;DHT22;9854;50.968;4.168;2023-08-06T10:12:27;14.30;99.90
19437;DHT22;9854;50.968;4.168;2023-08-06T10:14:56;14.30;99.90
19437;DHT22;9854;50.968;4.168;2023-08-06T10:17:23;14.30;99.90
19437;DHT22;9854;50.968;4.168;2023-08-06T10:19:50;14.40;99.90
19437;DHT22;9854;50.968;4.168;2023-08-06T10:22:17;14.30;99.90
19437;DHT22;9854;50.968;4.168;2023-08-06T10:27:12;14.20;99.90
19437;DHT22;9854;50.968;4.168;2023-08-06T10:29:38;14.30;99.90
19437;DHT22;9854;50.968;4.168;2023-08-06T10:32:04;14.30;99.90
19437;DHT22;9854;50.968;4.168;2023-08-06T10:34:54;14.30;99.90
19437;DHT22;9854;50.968;4.168;2023-08-06T10:37:36;14.30;99.90
19437;DHT22;9854;50.968;4.168;2023-08-06T10:40:02;14.20;99.90
19437;DHT22;9854;50.968;4.168;2023-08-06T10:42:29;14.10;99.90
19437;DHT22;9854;50.968;4.168;2023-08-06T10:45:18;14.10;99.90
19437;DHT22;9854;50.968;4.168;2023-08-06T10:47:44;14.10;99.90
19437;DHT22;9854;50.968;4.168;2023-08-06T10:50:13;14.10;99.90
19437;DHT22;9854;50.968;4.168;2023-08-06T10:52:40;14.20;99.90
19437;DHT22;9854;50.968;4.168;2023-08-06T10:55:06;14.20;99.90
19437;DHT22;9854;50.968;4.168;2023-08-06T10:57:32;14.20;99.90
19437;DHT22;9854;50.968;4.168;2023-08-06T10:59:57;14.20;99.90
19437;DHT22;9854;50.968;4.168;2023-08-06T11:02:23;14.20;99.90
19437;DHT22;9854;50.968;4.168;2023-08-06T11:04:49;14.20;99.90
19437;DHT22;9854;50.968;4.168;2023-08-06T11:07:14;14.30;99.90
19437;DHT22;9854;50.968;4.168;2023-08-06T11:09:40;14.30;99.90
19437;DHT22;9854;50.968;4.168;2023-08-06T11:12:12;14.40;99.90
19437;DHT22;9854;50.968;4.168;2023-08-06T11:14:49;14.30;99.90
19437;DHT22;9854;50.968;4.168;2023-08-06T11:17:15;14.20;99.90
19437;DHT22;9854;50.968;4.168;2023-08-06T11:19:41;14.10;99.90
19437;DHT22;9854;50.968;4.168;2023-08-06T11:22:07;13.90;99.90
19437;DHT22;9854;50.968;4.168;2023-08-06T11:24:32;14.00;99.90
19437;DHT22;9854;50.968;4.168;2023-08-06T11:26:58;13.90;99.90
19437;DHT22;9854;50.968;4.168;2023-08-06T11:29:24;13.90;99.90
19437;DHT22;9854;50.968;4.168;2023-08-06T11:31:49;13.90;99.90
19437;DHT22;9854;50.968;4.168;2023-08-06T11:34:15;13.90;99.90
19437;DHT22;9854;50.968;4.168;2023-08-06T11:36:42;13.90;99.90
19437;DHT22;9854;50.968;4.168;2023-08-06T11:39:08;14.00;99.90
19437;DHT22;9854;50.968;4.168;2023-08-06T11:41:36;14.00;99.90
19437;DHT22;9854;50.968;4.168;2023-08-06T11:44:06;14.00;99.90
19437;DHT22;9854;50.968;4.168;2023-08-06T11:46:54;14.10;99.90
19437;DHT22;9854;50.968;4.168;2023-08-06T11:49:40;14.20;99.90
19437;DHT22;9854;50.968;4.168;2023-08-06T11:52:23;14.20;99.90
19437;DHT22;9854;50.968;4.168;2023-08-06T11:55:05;14.40;99.90
19437;DHT22;9854;50.968;4.168;2023-08-06T11:57:36;14.50;99.90
19437;DHT22;9854;50.968;4.168;2023-08-06T12:00:13;14.60;99.90
19437;DHT22;9854;50.968;4.168;2023-08-06T12:02:40;14.80;99.90
19437;DHT22;9854;50.968;4.168;2023-08-06T12:05:10;14.80;99.90
19437;DHT22;9854;50.968;4.168;2023-08-06T12:07:38;14.90;99.90
19437;DHT22;9854;50.968;4.168;2023-08-06T12:10:04;14.90;99.90
19437;DHT22;9854;50.968;4.168;2023-08-06T12:12:30;15.00;99.90
19437;DHT22;9854;50.968;4.168;2023-08-06T12:14:56;15.10;99.90
19437;DHT22;9854;50.968;4.168;2023-08-06T12:17:26;15.20;99.90
19437;DHT22;9854;50.968;4.168;2023-08-06T12:19:52;15.20;99.90
19437;DHT22;9854;50.968;4.168;2023-08-06T12:22:18;15.10;99.90
19437;DHT22;9854;50.968;4.168;2023-08-06T12:24:44;14.90;99.90
19437;DHT22;9854;50.968;4.168;2023-08-06T12:27:11;14.60;99.90
19437;DHT22;9854;50.968;4.168;2023-08-06T12:29:40;14.50;99.90
19437;DHT22;9854;50.968;4.168;2023-08-06T12:32:07;14.50;99.90
19437;DHT22;9854;50.968;4.168;2023-08-06T12:34:32;14.60;99.90
19437;DHT22;9854;50.968;4.168;2023-08-06T12:36:58;14.60;99.90
19437;DHT22;9854;50.968;4.168;2023-08-06T12:39:23;14.80;99.90
19437;DHT22;9854;50.968;4.168;2023-08-06T12:41:49;14.90;99.90
19437;DHT22;9854;50.968;4.168;2023-08-06T12:44:15;14.90;99.90
19437;DHT22;9854;50.968;4.168;2023-08-06T12:46:41;14.80;99.90
19437;DHT22;9854;50.968;4.168;2023-08-06T12:49:06;14.70;99.90
19437;DHT22;9854;50.968;4.168;2023-08-06T12:51:32;14.60;99.90
19437;DHT22;9854;50.968;4.168;2023-08-06T12:53:59;14.60;99.90
19437;DHT22;9854;50.968;4.168;2023-08-06T12:56:25;14.50;99.90
19437;DHT22;9854;50.968;4.168;2023-08-06T12:58:50;14.40;99.90
19437;DHT22;9854;50.968;4.168;2023-08-06T13:01:16;14.40;99.90
19437;DHT22;9854;50.968;4.168;2023-08-06T13:03:41;14.50;99.90
19437;DHT22;9854;50.968;4.168;2023-08-06T13:06:07;14.50;99.90
19437;DHT22;9854;50.968;4.168;2023-08-06T13:08:35;14.50;99.90
19437;DHT22;9854;50.968;4.168;2023-08-06T13:11:01;14.50;99.90
19437;DHT22;9854;50.968;4.168;2023-08-06T13:13:26;14.60;99.90
19437;DHT22;9854;50.968;4.168;2023-08-06T13:15:52;14.60;99.90
19437;DHT22;9854;50.968;4.168;2023-08-06T13:18:18;14.50;99.90
19437;DHT22;9854;50.968;4.168;2023-08-06T13:20:43;14.40;99.90
19437;DHT22;9854;50.968;4.168;2023-08-06T13:23:09;14.30;99.90
19437;DHT22;9854;50.968;4.168;2023-08-06T13:25:35;14.30;99.90
19437;DHT22;9854;50.968;4.168;2023-08-06T13:28:05;14.30;99.90
19437;DHT22;9854;50.968;4.168;2023-08-06T13:30:31;14.20;99.90
19437;DHT22;9854;50.968;4.168;2023-08-06T13:32:57;14.10;99.90
19437;DHT22;9854;50.968;4.168;2023-08-06T13:35:23;14.00;99.90
19437;DHT22;9854;50.968;4.168;2023-08-06T13:37:49;14.00;99.90
19437;DHT22;9854;50.968;4.168;2023-08-06T13:40:15;14.00;99.90
19437;DHT22;9854;50.968;4.168;2023-08-06T13:42:41;13.90;99.90
19437;DHT22;9854;50.968;4.168;2023-08-06T13:45:07;14.00;99.90
19437;DHT22;9854;50.968;4.168;2023-08-06T13:47:33;14.00;99.90
19437;DHT22;9854;50.968;4.168;2023-08-06T13:49:58;14.10;99.90
19437;DHT22;9854;50.968;4.168;2023-08-06T13:52:27;14.20;99.90
19437;DHT22;9854;50.968;4.168;2023-08-06T13:54:52;14.30;99.90
19437;DHT22;9854;50.968;4.168;2023-08-06T13:57:18;14.50;99.90
19437;DHT22;9854;50.968;4.168;2023-08-06T13:59:44;14.50;99.90
19437;DHT22;9854;50.968;4.168;2023-08-06T14:02:10;14.50;99.90
19437;DHT22;9854;50.968;4.168;2023-08-06T14:04:35;14.40;99.90
19437;DHT22;9854;50.968;4.168;2023-08-06T14:07:03;14.40;99.90
19437;DHT22;9854;50.968;4.168;2023-08-06T14:09:29;14.30;99.90
19437;DHT22;9854;50.968;4.168;2023-08-06T14:11:54;14.20;99.90
19437;DHT22;9854;50.968;4.168;2023-08-06T14:14:20;14.20;99.90
19437;DHT22;9854;50.968;4.168;2023-08-06T14:16:51;14.20;99.90
19437;DHT22;9854;50.968;4.168;2023-08-06T14:19:17;14.20;99.90
19437;DHT22;9854;50.968;4.168;2023-08-06T14:21:43;14.10;99.90
19437;DHT22;9854;50.968;4.168;2023-08-06T14:24:08;14.10;99.90
19437;DHT22;9854;50.968;4.168;2023-08-06T14:26:34;14.10;99.90
19437;DHT22;9854;50.968;4.168;2023-08-06T14:29:00;14.10;99.90
19437;DHT22;9854;50.968;4.168;2023-08-06T14:31:26;14.20;99.90
19437;DHT22;9854;50.968;4.168;2023-08-06T14:33:52;14.20;99.90
19437;DHT22;9854;50.968;4.168;2023-08-06T14:36:18;14.30;99.90
19437;DHT22;9854;50.968;4.168;2023-08-06T14:38:44;14.30;99.90
19437;DHT22;9854;50.968;4.168;2023-08-06T14:41:09;14.40;99.90
19437;DHT22;9854;50.968;4.168;2023-08-06T14:43:35;14.40;99.90
19437;DHT22;9854;50.968;4.168;2023-08-06T14:46:01;14.50;99.90
19437;DHT22;9854;50.968;4.168;2023-08-06T14:48:26;14.60;99.90
19437;DHT22;9854;50.968;4.168;2023-08-06T14:50:52;14.80;99.90
19437;DHT22;9854;50.968;4.168;2023-08-06T14:53:17;15.10;99.90
19437;DHT22;9854;50.968;4.168;2023-08-06T14:55:43;15.20;99.90
19437;DHT22;9854;50.968;4.168;2023-08-06T14:58:09;15.40;99.90
19437;DHT22;9854;50.968;4.168;2023-08-06T15:00:34;15.60;99.90
19437;DHT22;9854;50.968;4.168;2023-08-06T15:03:00;15.70;99.90
19437;DHT22;9854;50.968;4.168;2023-08-06T15:05:25;15.80;99.90
19437;DHT22;9854;50.968;4.168;2023-08-06T15:07:51;15.80;99.90
19437;DHT22;9854;50.968;4.168;2023-08-06T15:10:18;15.80;99.90
19437;DHT22;9854;50.968;4.168;2023-08-06T15:12:44;15.50;99.90
19437;DHT22;9854;50.968;4.168;2023-08-06T15:15:10;15.20;99.90
19437;DHT22;9854;50.968;4.168;2023-08-06T15:17:36;14.90;99.90
19437;DHT22;9854;50.968;4.168;2023-08-06T15:20:02;14.80;99.90
19437;DHT22;9854;50.968;4.168;2023-08-06T15:22:28;15.00;99.90
19437;DHT22;9854;50.968;4.168;2023-08-06T15:24:57;15.30;99.90
19437;DHT22;9854;50.968;4.168;2023-08-06T15:27:23;15.40;99.90
19437;DHT22;9854;50.968;4.168;2023-08-06T15:29:49;15.60;99.90
19437;DHT22;9854;50.968;4.168;2023-08-06T15:32:14;15.80;99.90
19437;DHT22;9854;50.968;4.168;2023-08-06T15:34:40;16.00;99.90
19437;DHT22;9854;50.968;4.168;2023-08-06T15:37:06;16.40;99.90
19437;DHT22;9854;50.968;4.168;2023-08-06T15:39:33;16.60;99.90
19437;DHT22;9854;50.968;4.168;2023-08-06T15:41:59;16.80;99.90
19437;DHT22;9854;50.968;4.168;2023-08-06T15:44:25;17.00;99.90
19437;DHT22;9854;50.968;4.168;2023-08-06T15:46:51;17.00;99.90